createdAt,value
2022-08-16T00:02:17.602Z,20.47
2022-08-16T00:05:48.304Z,20.46
2022-08-16T00:09:11.322Z,20.47
2022-08-16T00:12:36.875Z,20.47
2022-08-16T00:16:00.930Z,20.45
2022-08-16T00:19:42.669Z,20.44
2022-08-16T00:23:05.723Z,20.43
2022-08-16T00:26:36.271Z,20.41
2022-08-16T00:30:19.070Z,20.29
2022-08-16T00:33:43.081Z,20.22
2022-08-16T00:37:12.578Z,20.24
2022-08-16T00:40:50.575Z,20.11
2022-08-16T00:44:13.699Z,20.10
2022-08-16T00:47:42.608Z,20.01
2022-08-16T00:51:15.945Z,20.01
2022-08-16T00:54:39.545Z,19.95
2022-08-16T00:58:05.110Z,19.97
2022-08-16T01:01:36.018Z,19.96
2022-08-16T01:05:09.297Z,19.94
2022-08-16T01:08:36.973Z,19.98
2022-08-16T01:11:58.737Z,19.95
2022-08-16T01:15:21.774Z,19.97
2022-08-16T01:19:01.065Z,19.82
2022-08-16T01:22:48.426Z,19.90
2022-08-16T01:26:33.514Z,19.73
2022-08-16T01:30:00.563Z,19.81
2022-08-16T01:33:23.593Z,19.70
2022-08-16T01:36:45.903Z,19.75
2022-08-16T01:40:23.765Z,19.71
2022-08-16T01:43:53.490Z,19.68
2022-08-16T01:47:16.344Z,19.58
2022-08-16T01:51:09.764Z,19.50
2022-08-16T01:54:30.514Z,19.49
2022-08-16T01:57:56.307Z,19.43
2022-08-16T02:01:20.069Z,19.44
2022-08-16T02:04:54.596Z,19.41
2022-08-16T02:08:33.782Z,19.36
2022-08-16T02:11:59.361Z,19.32
2022-08-16T02:15:43.944Z,19.33
2022-08-16T02:19:15.837Z,19.32
2022-08-16T02:22:38.710Z,19.33
2022-08-16T02:26:01.013Z,19.26
2022-08-16T02:29:24.255Z,19.23
2022-08-16T02:32:54.992Z,19.09
2022-08-16T02:36:47.322Z,19.11
2022-08-16T02:40:02.676Z,19.10
2022-08-16T02:43:26.595Z,19.07
2022-08-16T02:46:50.308Z,19.09
2022-08-16T02:50:54.029Z,18.95
2022-08-16T02:53:56.549Z,19.14
2022-08-16T02:57:19.449Z,19.11
2022-08-16T03:00:45.419Z,19.11
2022-08-16T03:04:39.614Z,19.12
2022-08-16T03:07:53.683Z,19.10
2022-08-16T03:11:21.602Z,19.07
2022-08-16T03:14:43.528Z,19.03
2022-08-16T03:18:05.553Z,19.03
2022-08-16T03:21:38.099Z,19.12
2022-08-16T03:25:02.819Z,19.11
2022-08-16T03:28:26.067Z,19.14
2022-08-16T03:31:52.288Z,19.17
2022-08-16T03:35:14.382Z,19.20
2022-08-16T03:38:40.039Z,19.25
2022-08-16T03:42:01.925Z,19.32
2022-08-16T03:45:31.141Z,19.38
2022-08-16T03:48:53.886Z,19.56
2022-08-16T03:52:16.936Z,19.69
2022-08-16T03:55:45.385Z,19.82
2022-08-16T03:59:08.080Z,19.97
2022-08-16T04:02:32.037Z,20.08
2022-08-16T04:05:54.336Z,20.23
2022-08-16T04:09:16.483Z,20.20
2022-08-16T04:13:04.139Z,20.50
2022-08-16T04:16:26.566Z,20.68
2022-08-16T04:19:54.776Z,20.65
2022-08-16T04:23:19.736Z,21.00
2022-08-16T04:26:46.356Z,21.12
2022-08-16T04:30:12.283Z,21.22
2022-08-16T04:33:59.341Z,21.39
2022-08-16T04:37:22.543Z,21.52
2022-08-16T04:40:44.983Z,21.65
2022-08-16T04:44:52.904Z,21.78
2022-08-16T04:47:55.959Z,21.91
2022-08-16T04:51:18.472Z,22.02
2022-08-16T04:54:43.176Z,22.02
2022-08-16T04:58:38.279Z,22.18
2022-08-16T05:01:57.758Z,22.33
2022-08-16T05:05:21.903Z,22.53
2022-08-16T05:08:47.285Z,22.67
2022-08-16T05:12:18.055Z,22.83
2022-08-16T05:15:44.025Z,22.97
2022-08-16T05:19:11.417Z,23.01
2022-08-16T05:22:36.553Z,23.10
2022-08-16T05:25:59.828Z,23.09
2022-08-16T05:29:24.814Z,23.09
2022-08-16T05:32:47.551Z,23.22
2022-08-16T05:36:14.387Z,23.48
2022-08-16T05:39:40.589Z,23.67
2022-08-16T05:43:03.558Z,23.74
2022-08-16T05:46:28.966Z,23.90
2022-08-16T05:49:53.523Z,24.03
2022-08-16T05:53:15.501Z,24.20
2022-08-16T05:56:38.455Z,24.36
2022-08-16T06:00:03.419Z,24.58
2022-08-16T06:03:31.213Z,24.75
2022-08-16T06:06:57.387Z,24.94
2022-08-16T06:10:32.301Z,25.00
2022-08-16T06:13:55.540Z,25.09
2022-08-16T06:17:17.650Z,25.15
2022-08-16T06:20:55.222Z,25.01
2022-08-16T06:24:55.261Z,25.16
2022-08-16T06:28:00.266Z,25.24
2022-08-16T06:31:24.676Z,25.38
2022-08-16T06:34:57.480Z,25.48
2022-08-16T06:38:34.091Z,25.55
2022-08-16T06:41:56.453Z,25.72
2022-08-16T06:45:18.549Z,25.85
2022-08-16T06:48:42.909Z,25.83
2022-08-16T06:52:06.292Z,25.87
2022-08-16T06:55:49.467Z,26.00
2022-08-16T06:59:16.111Z,26.18
2022-08-16T07:02:38.381Z,26.23
2022-08-16T07:06:14.021Z,26.33
2022-08-16T07:09:36.836Z,26.42
2022-08-16T07:13:03.930Z,26.57
2022-08-16T07:16:30.643Z,26.75
2022-08-16T07:20:03.261Z,26.81
2022-08-16T07:23:37.238Z,26.91
2022-08-16T07:27:01.622Z,26.85
2022-08-16T07:30:38.186Z,26.98
2022-08-16T07:34:10.253Z,27.13
2022-08-16T07:37:32.442Z,27.24
2022-08-16T07:41:09.760Z,27.36
2022-08-16T07:44:49.170Z,27.47
2022-08-16T07:48:14.476Z,27.59
2022-08-16T07:51:38.013Z,27.65
2022-08-16T07:55:00.143Z,27.69
2022-08-16T07:58:34.872Z,27.68
2022-08-16T08:01:57.544Z,27.66
2022-08-16T08:05:25.324Z,27.73
2022-08-16T08:08:59.252Z,27.76
2022-08-16T08:12:32.416Z,27.76
2022-08-16T08:15:58.579Z,27.67
2022-08-16T08:19:21.142Z,27.72
2022-08-16T08:22:47.295Z,27.87
2022-08-16T08:26:17.421Z,27.85
2022-08-16T08:29:40.658Z,27.80
2022-08-16T08:33:05.418Z,27.78
2022-08-16T08:36:33.141Z,27.77
2022-08-16T08:39:57.066Z,27.94
2022-08-16T08:43:19.286Z,28.03
2022-08-16T08:46:40.982Z,27.94
2022-08-16T08:50:03.336Z,27.93
2022-08-16T08:53:30.580Z,27.94
2022-08-16T08:56:54.613Z,28.00
2022-08-16T09:00:21.288Z,28.06
2022-08-16T09:03:43.741Z,28.13
2022-08-16T09:07:06.821Z,28.14
2022-08-16T09:10:29.811Z,28.13
2022-08-16T09:13:53.769Z,28.14
2022-08-16T09:17:45.022Z,28.20
2022-08-16T09:21:00.771Z,28.15
2022-08-16T09:24:51.746Z,28.26
2022-08-16T09:28:09.179Z,28.31
2022-08-16T09:31:33.196Z,28.40
2022-08-16T09:35:03.517Z,28.34
2022-08-16T09:38:32.163Z,28.42
2022-08-16T09:41:56.465Z,28.44
2022-08-16T09:45:18.754Z,28.48
2022-08-16T09:48:51.584Z,28.51
2022-08-16T09:52:13.792Z,28.46
2022-08-16T09:55:44.283Z,28.55
2022-08-16T09:59:08.987Z,28.64
2022-08-16T10:02:31.558Z,28.69
2022-08-16T10:05:55.479Z,28.69
2022-08-16T10:09:17.920Z,28.73
2022-08-16T10:12:57.443Z,28.76
2022-08-16T10:16:21.833Z,28.61
2022-08-16T10:19:47.311Z,28.64
2022-08-16T10:23:17.194Z,28.61
2022-08-16T10:27:16.892Z,28.71
2022-08-16T10:30:25.112Z,28.75
2022-08-16T10:33:48.896Z,28.74
2022-08-16T10:37:11.083Z,28.82
2022-08-16T10:40:34.565Z,28.89
2022-08-16T10:43:56.775Z,28.87
2022-08-16T10:47:18.904Z,28.78
2022-08-16T10:50:41.306Z,28.81
2022-08-16T10:54:05.012Z,28.84
2022-08-16T10:57:32.735Z,28.85
2022-08-16T11:00:57.589Z,28.83
2022-08-16T11:08:06.904Z,28.85
2022-08-16T11:11:28.983Z,28.65
2022-08-16T11:18:54.922Z,28.78
2022-08-16T11:22:38.510Z,28.76
2022-08-16T11:26:16.128Z,28.92
2022-08-16T11:29:43.684Z,28.96
2022-08-16T11:33:07.357Z,28.97
2022-08-16T11:36:29.553Z,29.02
2022-08-16T11:39:55.376Z,29.03
2022-08-16T11:43:26.450Z,28.99
2022-08-16T11:46:48.623Z,28.99
2022-08-16T11:50:12.914Z,29.06
2022-08-16T11:53:36.091Z,28.95
2022-08-16T11:56:58.684Z,29.06
2022-08-16T12:00:33.786Z,29.08
2022-08-16T12:04:03.323Z,29.10
2022-08-16T12:07:27.007Z,29.06
2022-08-16T12:10:50.398Z,29.08
2022-08-16T12:14:12.266Z,29.18
2022-08-16T12:17:35.689Z,29.17
2022-08-16T12:21:00.003Z,29.15
2022-08-16T12:24:24.080Z,29.10
2022-08-16T12:27:49.869Z,29.06
2022-08-16T12:31:11.939Z,29.06
2022-08-16T12:34:34.607Z,29.10
2022-08-16T12:37:58.292Z,29.12
2022-08-16T12:41:25.479Z,29.22
2022-08-16T12:44:48.452Z,29.16
2022-08-16T12:48:34.866Z,29.34
2022-08-16T12:51:58.823Z,29.36
2022-08-16T12:55:24.006Z,29.33
2022-08-16T12:58:58.497Z,29.41
2022-08-16T13:02:33.797Z,29.41
2022-08-16T13:05:59.183Z,29.55
2022-08-16T13:09:26.485Z,29.59
2022-08-16T13:12:54.521Z,29.64
2022-08-16T13:16:20.278Z,29.61
2022-08-16T13:23:29.883Z,29.59
2022-08-16T13:26:53.354Z,29.70
2022-08-16T13:30:35.667Z,29.76
2022-08-16T13:33:59.273Z,29.75
2022-08-16T13:37:21.429Z,29.73
2022-08-16T13:40:44.167Z,29.72
2022-08-16T13:44:09.518Z,29.68
2022-08-16T13:47:32.482Z,29.75
2022-08-16T13:51:03.722Z,29.88
2022-08-16T13:54:28.627Z,29.90
2022-08-16T13:58:36.404Z,29.89
2022-08-16T14:01:36.571Z,29.95
2022-08-16T14:05:05.103Z,29.92
2022-08-16T14:08:29.254Z,29.96
2022-08-16T14:11:53.344Z,30.00
2022-08-16T14:15:17.672Z,30.02
2022-08-16T14:18:39.506Z,30.03
2022-08-16T14:22:14.244Z,29.93
2022-08-16T14:25:40.087Z,30.03
2022-08-16T14:29:03.569Z,30.06
2022-08-16T14:32:34.386Z,30.06
2022-08-16T14:35:56.490Z,29.99
2022-08-16T14:39:18.377Z,29.91
2022-08-16T14:42:44.182Z,29.92
2022-08-16T14:46:07.626Z,29.91
2022-08-16T14:49:30.195Z,29.87
2022-08-16T14:52:57.473Z,29.87
2022-08-16T14:56:42.600Z,29.82
2022-08-16T15:00:05.785Z,29.84
2022-08-16T15:03:27.990Z,29.86
2022-08-16T15:06:54.866Z,29.91
2022-08-16T15:10:24.147Z,29.82
2022-08-16T15:13:46.690Z,29.85
2022-08-16T15:17:11.128Z,29.78
2022-08-16T15:20:36.684Z,29.77
2022-08-16T15:24:00.264Z,29.75
2022-08-16T15:27:22.397Z,29.74
2022-08-16T15:30:59.682Z,29.72
2022-08-16T15:34:26.341Z,29.77
2022-08-16T15:37:54.542Z,29.75
2022-08-16T15:41:46.912Z,29.72
2022-08-16T15:45:11.515Z,29.66
2022-08-16T15:48:34.393Z,29.61
2022-08-16T15:52:03.806Z,29.57
2022-08-16T15:55:35.195Z,29.53
2022-08-16T15:58:57.696Z,29.52
2022-08-16T16:02:27.720Z,29.44
2022-08-16T16:05:54.384Z,29.41
2022-08-16T16:09:19.984Z,29.43
2022-08-16T16:12:58.198Z,29.56
2022-08-16T16:16:22.392Z,29.57
2022-08-16T16:19:44.497Z,29.83
2022-08-16T16:23:11.690Z,30.10
2022-08-16T16:26:35.829Z,30.49
2022-08-16T16:30:01.881Z,30.85
2022-08-16T16:33:26.608Z,30.84
2022-08-16T16:36:48.773Z,31.06
2022-08-16T16:40:13.720Z,31.20
2022-08-16T16:43:48.110Z,31.21
2022-08-16T16:47:15.531Z,30.98
2022-08-16T16:50:39.452Z,30.71
2022-08-16T16:54:02.709Z,30.33
2022-08-16T16:57:42.736Z,30.08
2022-08-16T17:01:07.896Z,29.69
2022-08-16T17:04:32.320Z,29.49
2022-08-16T17:07:55.365Z,29.24
2022-08-16T17:11:17.444Z,29.02
2022-08-16T17:19:14.781Z,28.66
2022-08-16T17:22:06.846Z,28.47
2022-08-16T17:25:37.171Z,28.30
2022-08-16T17:29:11.268Z,28.03
2022-08-16T17:32:47.783Z,27.98
2022-08-16T17:36:12.181Z,27.85
2022-08-16T17:39:28.412Z,28.84
2022-08-16T17:39:59.936Z,27.69
2022-08-16T17:43:28.475Z,27.59
2022-08-16T17:46:52.679Z,27.47
2022-08-16T17:50:15.317Z,27.33
2022-08-16T17:53:39.161Z,27.12
2022-08-16T17:57:01.432Z,27.09
2022-08-16T18:00:25.301Z,26.99
2022-08-16T18:04:07.035Z,26.89
2022-08-16T18:07:29.308Z,26.69
2022-08-16T18:10:53.323Z,26.64
2022-08-16T18:14:18.229Z,26.52
2022-08-16T18:17:40.531Z,26.40
2022-08-16T18:21:20.150Z,26.27
2022-08-16T18:24:42.437Z,26.13
2022-08-16T18:28:05.922Z,26.02
2022-08-16T18:31:27.806Z,25.91
2022-08-16T18:34:49.779Z,25.79
2022-08-16T18:38:12.347Z,25.68
2022-08-16T18:41:37.363Z,25.63
2022-08-16T18:45:01.140Z,25.49
2022-08-16T18:48:27.415Z,25.40
2022-08-16T18:51:51.057Z,25.31
2022-08-16T18:55:14.462Z,25.24
2022-08-16T18:58:37.549Z,25.17
2022-08-16T19:02:04.754Z,25.10
2022-08-16T19:05:31.046Z,24.98
2022-08-16T19:08:53.375Z,24.90
2022-08-16T19:12:15.790Z,24.79
2022-08-16T19:15:38.921Z,24.67
2022-08-16T19:19:02.716Z,24.74
2022-08-16T19:22:51.983Z,24.62
2022-08-16T19:26:23.424Z,24.63
2022-08-16T19:29:47.652Z,24.61
2022-08-16T19:33:11.147Z,24.53
2022-08-16T19:36:37.473Z,24.50
2022-08-16T19:39:59.714Z,24.41
2022-08-16T19:43:22.301Z,24.41
2022-08-16T19:46:46.671Z,24.31
2022-08-16T19:50:09.158Z,24.28
2022-08-16T19:53:33.022Z,24.23
2022-08-16T19:56:58.281Z,24.15
2022-08-16T20:00:20.211Z,24.12
2022-08-16T20:03:42.411Z,24.08
2022-08-16T20:07:04.638Z,24.02
2022-08-16T20:10:29.152Z,23.99
2022-08-16T20:13:51.084Z,23.88
2022-08-16T20:17:14.352Z,23.94
2022-08-16T20:20:36.628Z,23.89
2022-08-16T20:24:22.714Z,23.85
2022-08-16T20:27:43.338Z,23.81
2022-08-16T20:31:05.362Z,23.72
2022-08-16T20:34:27.721Z,23.70
2022-08-16T20:37:49.507Z,23.57
2022-08-16T20:44:52.929Z,23.51
2022-08-16T20:48:15.232Z,23.44
2022-08-16T20:51:49.598Z,23.35
2022-08-16T20:55:13.162Z,23.38
2022-08-16T20:58:35.190Z,23.33
2022-08-16T21:01:59.490Z,23.21
2022-08-16T21:05:24.689Z,23.25
2022-08-16T21:08:53.310Z,23.22
2022-08-16T21:12:18.020Z,23.10
2022-08-16T21:15:40.297Z,23.11
2022-08-16T21:19:03.780Z,23.08
2022-08-16T21:22:26.721Z,23.03
2022-08-16T21:25:58.119Z,23.04
2022-08-16T21:29:21.179Z,23.00
2022-08-16T21:32:46.896Z,22.98
2022-08-16T21:36:10.828Z,22.95
2022-08-16T21:39:32.980Z,22.90
2022-08-16T21:42:55.478Z,22.78
2022-08-16T21:46:17.854Z,22.80
2022-08-16T21:49:40.068Z,22.71
2022-08-16T21:53:12.015Z,22.69
2022-08-16T21:56:34.224Z,22.61
2022-08-16T21:59:57.360Z,22.55
2022-08-16T22:03:19.930Z,22.51
2022-08-16T22:06:43.160Z,22.46
2022-08-16T22:11:06.115Z,22.30
2022-08-16T22:13:57.974Z,22.29
2022-08-16T22:17:21.254Z,22.21
2022-08-16T22:20:43.734Z,22.09
2022-08-16T22:24:06.246Z,22.04
2022-08-16T22:27:30.153Z,21.92
2022-08-16T22:30:52.784Z,21.89
2022-08-16T22:34:15.268Z,21.77
2022-08-16T22:37:37.569Z,21.80
2022-08-16T22:41:00.625Z,21.67
2022-08-16T22:44:24.718Z,21.77
2022-08-16T22:47:46.450Z,21.72
2022-08-16T22:51:08.658Z,21.70
2022-08-16T22:54:41.372Z,21.74
2022-08-16T22:58:11.613Z,21.72
2022-08-16T23:01:35.210Z,21.70
2022-08-16T23:04:57.051Z,21.70
2022-08-16T23:08:38.149Z,21.71
2022-08-16T23:12:07.450Z,21.71
2022-08-16T23:15:31.357Z,21.52
2022-08-16T23:18:55.501Z,21.71
2022-08-16T23:22:17.583Z,21.70
2022-08-16T23:25:41.641Z,21.69
2022-08-16T23:29:04.824Z,21.71
2022-08-16T23:32:26.875Z,21.66
2022-08-16T23:35:52.350Z,21.71
2022-08-16T23:39:14.553Z,21.68
2022-08-16T23:42:52.323Z,21.65
2022-08-16T23:46:19.631Z,21.62
2022-08-16T23:49:56.773Z,21.57
2022-08-16T23:53:26.332Z,21.56
2022-08-16T23:56:48.616Z,21.46
